createdAt,value
2023-02-13T00:00:50.064Z,20.07
2023-02-13T00:03:23.427Z,20.90
2023-02-13T00:05:56.846Z,19.23
2023-02-13T00:08:27.618Z,21.87
2023-02-13T00:10:59.068Z,20.33
2023-02-13T00:13:30.382Z,18.63
2023-02-13T00:16:02.533Z,19.63
2023-02-13T00:18:38.022Z,20.00
2023-02-13T00:21:13.042Z,18.87
2023-02-13T00:23:44.047Z,19.47
2023-02-13T00:26:17.082Z,19.90
2023-02-13T00:28:48.546Z,19.23
2023-02-13T00:31:21.303Z,18.83
2023-02-13T00:33:52.451Z,21.90
2023-02-13T00:36:27.492Z,20.50
2023-02-13T00:38:58.418Z,20.70
2023-02-13T00:41:29.273Z,20.90
2023-02-13T00:44:00.415Z,19.30
2023-02-13T00:46:31.225Z,21.50
2023-02-13T00:49:02.137Z,19.90
2023-02-13T00:51:35.822Z,20.77
2023-02-13T00:54:07.040Z,19.80
2023-02-13T00:56:37.834Z,20.10
2023-02-13T00:59:08.935Z,19.50
2023-02-13T01:01:39.820Z,20.00
2023-02-13T01:04:10.792Z,20.37
2023-02-13T01:06:44.371Z,19.40
2023-02-13T01:09:16.481Z,19.70
2023-02-13T01:11:47.699Z,20.50
2023-02-13T01:14:18.519Z,18.90
2023-02-13T01:16:49.512Z,20.10
2023-02-13T01:19:20.358Z,19.60
2023-02-13T01:21:53.906Z,18.60
2023-02-13T01:24:24.765Z,18.40
2023-02-13T01:26:55.741Z,18.17
2023-02-13T01:29:26.517Z,16.73
2023-02-13T01:31:57.437Z,17.23
2023-02-13T01:34:31.279Z,17.90
2023-02-13T01:37:07.840Z,15.10
2023-02-13T01:39:41.618Z,12.83
2023-02-13T01:42:18.021Z,12.70
2023-02-13T01:44:55.532Z,13.27
2023-02-13T01:47:29.850Z,12.20
2023-02-13T01:50:11.797Z,12.20
2023-02-13T01:52:50.489Z,12.10
2023-02-13T01:55:22.538Z,11.10
2023-02-13T01:58:00.584Z,10.50
2023-02-13T02:00:31.996Z,10.80
2023-02-13T02:03:06.991Z,10.93
2023-02-13T02:05:38.688Z,10.13
2023-02-13T02:08:14.625Z,8.90
2023-02-13T02:10:45.888Z,9.10
2023-02-13T02:13:21.861Z,8.40
2023-02-13T02:15:53.516Z,8.10
2023-02-13T02:18:25.629Z,7.23
2023-02-13T02:21:32.509Z,7.50
2023-02-13T02:24:36.010Z,7.00
2023-02-13T02:27:35.102Z,7.10
2023-02-13T02:30:41.469Z,7.30
2023-02-13T02:33:24.462Z,7.03
2023-02-13T02:36:04.881Z,6.50
2023-02-13T02:38:50.853Z,6.30
2023-02-13T02:41:45.105Z,6.43
2023-02-13T02:44:27.463Z,6.83
2023-02-13T02:47:29.074Z,6.17
2023-02-13T02:50:16.278Z,6.10
2023-02-13T02:52:59.995Z,7.10
2023-02-13T02:55:39.883Z,5.90
2023-02-13T02:58:29.287Z,5.50
2023-02-13T03:01:15.350Z,5.90
2023-02-13T03:03:59.318Z,6.37
2023-02-13T03:06:41.402Z,6.40
2023-02-13T03:09:27.923Z,5.73
2023-02-13T03:12:12.620Z,6.13
2023-02-13T03:14:44.499Z,5.67
2023-02-13T03:17:30.890Z,6.53
2023-02-13T03:20:31.161Z,6.60
2023-02-13T03:23:14.800Z,6.33
2023-02-13T03:26:02.445Z,6.40
2023-02-13T03:28:52.057Z,6.90
2023-02-13T03:31:29.128Z,6.33
2023-02-13T03:34:04.864Z,6.87
2023-02-13T03:37:02.274Z,7.40
2023-02-13T03:39:47.309Z,6.27
2023-02-13T03:42:25.781Z,5.70
2023-02-13T03:45:19.063Z,5.37
2023-02-13T03:47:52.332Z,5.83
2023-02-13T03:50:20.762Z,4.33
2023-02-13T03:52:55.743Z,4.83
2023-02-13T03:55:45.684Z,5.20
2023-02-13T03:58:33.119Z,4.77
2023-02-13T04:01:08.076Z,5.20
2023-02-13T04:03:45.500Z,4.87
2023-02-13T04:06:18.433Z,4.23
2023-02-13T04:08:49.403Z,4.50
2023-02-13T04:11:29.705Z,4.10
2023-02-13T04:14:03.403Z,4.90
2023-02-13T04:16:38.362Z,4.20
2023-02-13T04:19:12.059Z,5.03
2023-02-13T04:21:43.913Z,4.33
2023-02-13T04:24:15.179Z,4.30
2023-02-13T04:26:49.542Z,3.87
2023-02-13T04:29:20.344Z,4.73
2023-02-13T04:31:51.483Z,4.40
2023-02-13T04:34:22.383Z,4.67
2023-02-13T04:36:53.276Z,5.00
2023-02-13T04:39:24.038Z,5.00
2023-02-13T04:42:00.325Z,4.77
2023-02-13T04:44:31.134Z,5.10
2023-02-13T04:47:01.892Z,5.07
2023-02-13T04:49:32.875Z,4.83
2023-02-13T04:52:03.802Z,4.70
2023-02-13T04:54:34.686Z,5.17
2023-02-13T04:57:10.191Z,5.27
2023-02-13T04:59:44.178Z,5.20
2023-02-13T05:02:15.265Z,5.40
2023-02-13T05:04:46.164Z,5.10
2023-02-13T05:07:19.414Z,5.03
2023-02-13T05:09:50.602Z,4.97
2023-02-13T05:12:24.171Z,5.70
2023-02-13T05:14:54.988Z,5.43
2023-02-13T05:17:28.225Z,4.73
2023-02-13T05:19:59.193Z,5.53
2023-02-13T05:22:42.697Z,6.07
2023-02-13T05:25:13.770Z,5.50
2023-02-13T05:27:47.522Z,5.93
2023-02-13T05:30:22.274Z,5.50
2023-02-13T05:32:56.728Z,5.90
2023-02-13T05:35:28.011Z,5.83
2023-02-13T05:37:58.817Z,6.47
2023-02-13T05:40:29.656Z,6.13
2023-02-13T05:43:03.066Z,6.30
2023-02-13T05:45:34.131Z,5.80
2023-02-13T05:48:04.886Z,5.73
2023-02-13T05:50:35.650Z,6.23
2023-02-13T05:53:06.447Z,6.10
2023-02-13T05:55:41.375Z,6.47
2023-02-13T05:58:14.980Z,6.43
2023-02-13T06:00:45.920Z,6.30
2023-02-13T06:03:17.459Z,6.43
2023-02-13T06:05:48.192Z,6.77
2023-02-13T06:08:19.012Z,6.50
2023-02-13T06:10:49.998Z,6.93
2023-02-13T06:13:23.362Z,7.00
2023-02-13T06:15:54.261Z,7.30
2023-02-13T06:18:25.466Z,6.57
2023-02-13T06:20:56.606Z,6.00
2023-02-13T06:23:27.668Z,6.43
2023-02-13T06:25:58.730Z,7.63
2023-02-13T06:28:32.115Z,6.47
2023-02-13T06:31:03.116Z,7.10
2023-02-13T06:33:34.524Z,6.50
2023-02-13T06:36:05.363Z,6.20
2023-02-13T06:38:36.140Z,6.70
2023-02-13T06:41:07.500Z,6.50
2023-02-13T06:43:43.832Z,6.87
2023-02-13T06:46:14.599Z,6.30
2023-02-13T06:48:48.253Z,6.53
2023-02-13T06:51:20.702Z,6.10
2023-02-13T06:53:51.744Z,6.50
2023-02-13T06:56:22.511Z,6.90
2023-02-13T06:58:55.831Z,6.70
2023-02-13T07:01:30.520Z,6.60
2023-02-13T07:04:01.408Z,7.70
2023-02-13T07:06:33.593Z,7.20
2023-02-13T07:09:04.722Z,7.03
2023-02-13T07:11:35.545Z,7.53
2023-02-13T07:14:09.773Z,7.30
2023-02-13T07:16:40.579Z,7.23
2023-02-13T07:19:11.681Z,6.60
2023-02-13T07:21:42.587Z,7.53
2023-02-13T07:24:13.572Z,7.80
2023-02-13T07:26:44.271Z,7.60
2023-02-13T07:29:20.266Z,7.87
2023-02-13T07:31:51.314Z,8.17
2023-02-13T07:34:22.073Z,7.80
2023-02-13T07:36:52.840Z,8.63
2023-02-13T07:39:25.915Z,8.87
2023-02-13T07:41:56.679Z,7.97
2023-02-13T07:44:33.169Z,8.47
2023-02-13T07:47:04.351Z,8.80
2023-02-13T07:49:37.130Z,9.50
2023-02-13T07:52:09.006Z,9.50
2023-02-13T07:54:48.070Z,8.90
2023-02-13T07:57:19.708Z,8.20
2023-02-13T07:59:55.706Z,8.37
2023-02-13T08:02:26.645Z,8.73
2023-02-13T08:05:00.518Z,8.50
2023-02-13T08:07:31.622Z,9.47
2023-02-13T08:10:14.861Z,8.73
2023-02-13T08:12:46.059Z,7.80
2023-02-13T08:15:19.735Z,7.63
2023-02-13T08:17:50.668Z,7.27
2023-02-13T08:20:21.946Z,6.93
2023-02-13T08:22:53.003Z,7.73
2023-02-13T08:25:23.848Z,7.67
2023-02-13T08:27:54.564Z,7.93
2023-02-13T08:30:28.857Z,7.73
2023-02-13T08:32:59.768Z,7.50
2023-02-13T08:35:31.735Z,7.53
2023-02-13T08:38:05.593Z,8.97
2023-02-13T08:40:36.817Z,8.10
2023-02-13T08:43:08.988Z,7.00
2023-02-13T08:45:42.461Z,7.30
2023-02-13T08:48:13.345Z,7.90
2023-02-13T08:50:44.472Z,7.50
2023-02-13T08:53:15.329Z,6.67
2023-02-13T08:55:46.171Z,7.10
2023-02-13T08:58:17.013Z,8.37
2023-02-13T09:00:51.010Z,7.10
2023-02-13T09:03:21.903Z,7.27
2023-02-13T09:05:53.154Z,8.70
2023-02-13T09:08:24.515Z,7.90
2023-02-13T09:10:59.747Z,7.90
2023-02-13T09:13:33.061Z,7.87
2023-02-13T09:16:09.555Z,7.80
2023-02-13T09:18:40.426Z,6.60
2023-02-13T09:21:16.365Z,6.97
2023-02-13T09:23:47.350Z,7.27
2023-02-13T09:26:20.675Z,7.40
2023-02-13T09:28:51.820Z,7.27
2023-02-13T09:31:29.759Z,7.40
2023-02-13T09:34:00.676Z,7.00
2023-02-13T09:36:31.733Z,7.20
2023-02-13T09:39:02.961Z,7.07
2023-02-13T09:41:39.860Z,7.50
2023-02-13T09:44:34.019Z,7.30
2023-02-13T09:47:17.399Z,7.70
2023-02-13T09:49:53.456Z,7.30
2023-02-13T09:52:24.401Z,7.13
2023-02-13T09:54:55.272Z,7.30
2023-02-13T09:57:33.267Z,7.27
2023-02-13T10:00:13.412Z,7.30
2023-02-13T10:03:17.381Z,8.20
2023-02-13T10:05:58.097Z,7.40
2023-02-13T10:08:42.737Z,7.70
2023-02-13T10:11:35.598Z,8.13
2023-02-13T10:14:14.524Z,7.10
2023-02-13T10:16:50.894Z,8.43
2023-02-13T10:19:38.327Z,7.90
2023-02-13T10:22:14.980Z,9.27
2023-02-13T10:24:51.054Z,9.03
2023-02-13T10:27:26.133Z,9.00
2023-02-13T10:30:09.537Z,8.63
2023-02-13T10:33:14.609Z,8.80
2023-02-13T10:35:51.100Z,8.40
2023-02-13T10:38:23.773Z,8.40
2023-02-13T10:41:16.862Z,7.60
2023-02-13T10:44:00.936Z,7.80
2023-02-13T10:46:40.259Z,6.67
2023-02-13T10:49:26.801Z,8.27
2023-02-13T10:52:13.566Z,7.50
2023-02-13T10:55:03.048Z,8.30
2023-02-13T10:58:02.028Z,8.50
2023-02-13T11:00:37.824Z,9.13
2023-02-13T11:03:19.479Z,9.00
2023-02-13T11:05:50.505Z,8.10
2023-02-13T11:08:26.882Z,9.43
2023-02-13T11:10:57.857Z,8.70
2023-02-13T11:13:31.163Z,7.63
2023-02-13T11:16:05.563Z,8.40
2023-02-13T11:18:41.049Z,7.60
2023-02-13T11:21:13.934Z,8.23
2023-02-13T11:23:52.366Z,7.50
2023-02-13T11:26:29.434Z,7.50
2023-02-13T11:29:03.407Z,8.00
2023-02-13T11:31:36.461Z,7.87
2023-02-13T11:34:27.275Z,8.77
2023-02-13T11:37:17.041Z,8.70
2023-02-13T11:39:53.208Z,7.53
2023-02-13T11:42:30.424Z,7.10
2023-02-13T11:45:04.431Z,7.03
2023-02-13T11:47:45.942Z,7.87
2023-02-13T11:50:27.686Z,8.37
2023-02-13T11:53:04.397Z,6.60
2023-02-13T11:55:42.648Z,7.00
2023-02-13T11:58:27.794Z,7.10
2023-02-13T12:01:13.667Z,6.80
2023-02-13T12:03:47.111Z,6.60
2023-02-13T12:06:20.917Z,6.60
2023-02-13T12:08:53.374Z,6.20
2023-02-13T12:11:33.685Z,7.27
2023-02-13T12:14:04.917Z,6.30
2023-02-13T12:16:41.693Z,6.53
2023-02-13T12:19:19.768Z,6.20
2023-02-13T12:22:02.546Z,5.90
2023-02-13T12:25:04.929Z,6.20
2023-02-13T12:27:53.362Z,6.27
2023-02-13T12:30:55.207Z,5.63
2023-02-13T12:33:43.340Z,6.00
2023-02-13T12:36:21.658Z,5.93
2023-02-13T12:39:11.387Z,5.63
2023-02-13T12:41:49.296Z,6.00
2023-02-13T12:44:46.524Z,5.37
2023-02-13T12:47:21.981Z,6.17
2023-02-13T12:50:23.543Z,5.67
2023-02-13T12:53:17.379Z,5.77
2023-02-13T12:56:11.721Z,5.87
2023-02-13T12:58:59.896Z,5.53
2023-02-13T13:02:00.340Z,5.87
2023-02-13T13:04:45.716Z,5.30
2023-02-13T13:07:41.146Z,5.60
2023-02-13T13:10:34.521Z,5.60
2023-02-13T13:13:19.326Z,5.30
2023-02-13T13:15:58.390Z,5.07
2023-02-13T13:18:42.807Z,5.63
2023-02-13T13:21:25.277Z,5.80
2023-02-13T13:24:05.377Z,4.87
2023-02-13T13:26:39.736Z,5.50
2023-02-13T13:29:16.975Z,5.53
2023-02-13T13:31:53.932Z,5.33
2023-02-13T13:34:29.962Z,6.23
2023-02-13T13:37:07.812Z,5.90
2023-02-13T13:39:49.557Z,5.00
2023-02-13T13:42:27.780Z,5.47
2023-02-13T13:45:34.199Z,5.50
2023-02-13T13:48:36.854Z,5.50
2023-02-13T13:51:13.139Z,5.97
2023-02-13T13:54:28.285Z,5.83
2023-02-13T13:57:14.295Z,6.07
2023-02-13T14:00:29.978Z,5.83
2023-02-13T14:03:27.148Z,5.40
2023-02-13T14:06:04.719Z,5.47
2023-02-13T14:09:10.470Z,6.10
2023-02-13T14:11:48.270Z,6.00
2023-02-13T14:14:46.990Z,5.63
2023-02-13T14:17:20.103Z,5.47
2023-02-13T14:19:58.162Z,5.23
2023-02-13T14:22:35.645Z,6.57
2023-02-13T14:25:09.598Z,6.83
2023-02-13T14:27:44.030Z,6.73
2023-02-13T14:30:30.809Z,5.83
2023-02-13T14:33:06.119Z,5.70
2023-02-13T14:35:43.357Z,5.90
2023-02-13T14:38:26.996Z,6.30
2023-02-13T14:40:58.033Z,5.23
2023-02-13T14:43:40.852Z,5.50
2023-02-13T14:46:30.526Z,5.83
2023-02-13T14:49:08.509Z,5.80
2023-02-13T14:51:43.100Z,5.50
2023-02-13T14:54:22.632Z,5.97
2023-02-13T14:56:56.709Z,6.13
2023-02-13T14:59:35.549Z,5.73
2023-02-13T15:02:26.015Z,5.90
2023-02-13T15:04:59.731Z,5.63
2023-02-13T15:07:33.623Z,5.00
2023-02-13T15:10:10.830Z,5.20
2023-02-13T15:12:41.733Z,5.57
2023-02-13T15:15:27.367Z,5.73
2023-02-13T15:18:02.350Z,5.50
2023-02-13T15:20:36.483Z,5.87
2023-02-13T15:23:09.776Z,6.00
2023-02-13T15:25:42.509Z,5.93
2023-02-13T15:28:23.750Z,6.27
2023-02-13T15:31:02.866Z,5.73
2023-02-13T15:33:38.495Z,5.90
2023-02-13T15:36:19.703Z,5.60
2023-02-13T15:38:50.782Z,5.87
2023-02-13T15:41:26.201Z,5.47
2023-02-13T15:44:00.448Z,6.20
2023-02-13T15:46:36.116Z,6.50
2023-02-13T15:49:11.056Z,5.67
2023-02-13T15:51:42.011Z,5.80
2023-02-13T15:54:27.566Z,5.30
2023-02-13T15:57:01.988Z,5.50
2023-02-13T15:59:40.200Z,6.03
2023-02-13T16:02:21.461Z,5.43
2023-02-13T16:04:56.159Z,5.80
2023-02-13T16:07:26.953Z,7.70
2023-02-13T16:10:18.900Z,5.60
2023-02-13T16:12:51.850Z,5.43
2023-02-13T16:15:25.641Z,5.80
2023-02-13T16:18:01.699Z,5.43
2023-02-13T16:20:36.730Z,6.07
2023-02-13T16:23:16.258Z,5.80
2023-02-13T16:25:51.942Z,5.20
2023-02-13T16:28:26.217Z,5.53
2023-02-13T16:31:03.684Z,5.77
2023-02-13T16:33:43.447Z,5.77
2023-02-13T16:36:28.657Z,6.17
2023-02-13T16:38:59.588Z,5.57
2023-02-13T16:41:40.491Z,6.63
2023-02-13T16:48:04.044Z,7.00
2023-02-13T16:50:37.465Z,7.30
2023-02-13T16:53:08.398Z,7.10
2023-02-13T16:55:39.299Z,7.23
2023-02-13T16:58:21.015Z,7.47
2023-02-13T17:00:53.547Z,7.20
2023-02-13T17:03:24.420Z,6.50
2023-02-13T17:05:57.911Z,5.90
2023-02-13T17:08:28.700Z,6.67
2023-02-13T17:11:09.488Z,7.30
2023-02-13T17:13:42.045Z,6.47
2023-02-13T17:16:13.404Z,6.67
2023-02-13T17:18:44.390Z,7.10
2023-02-13T17:21:21.299Z,7.83
2023-02-13T17:23:52.381Z,6.70
2023-02-13T17:26:23.394Z,6.47
2023-02-13T17:28:54.152Z,6.87
2023-02-13T17:31:25.542Z,6.20
2023-02-13T17:33:56.770Z,7.13
2023-02-13T17:36:33.250Z,7.30
2023-02-13T17:39:04.066Z,6.27
2023-02-13T17:41:34.838Z,7.43
2023-02-13T17:44:10.309Z,7.00
2023-02-13T17:46:41.158Z,7.57
2023-02-13T17:49:12.369Z,8.50
2023-02-13T17:52:00.680Z,8.40
2023-02-13T17:54:33.126Z,8.17
2023-02-13T17:57:04.061Z,7.73
2023-02-13T17:59:34.941Z,7.03
2023-02-13T18:02:05.935Z,7.70
2023-02-13T18:04:36.709Z,7.90
2023-02-13T18:07:10.406Z,7.50
2023-02-13T18:09:41.967Z,7.63
2023-02-13T18:12:21.606Z,8.97
2023-02-13T18:14:53.281Z,8.43
2023-02-13T18:17:24.332Z,7.80
2023-02-13T18:19:55.873Z,8.47
2023-02-13T18:22:29.548Z,8.57
2023-02-13T18:25:00.359Z,8.10
2023-02-13T18:27:31.423Z,7.70
2023-02-13T18:30:02.541Z,9.27
2023-02-13T18:32:33.496Z,8.70
2023-02-13T18:35:07.725Z,9.43
2023-02-13T18:37:41.229Z,9.57
2023-02-13T18:40:15.063Z,8.70
2023-02-13T18:42:46.327Z,8.97
2023-02-13T18:45:17.171Z,8.60
2023-02-13T18:47:48.165Z,11.10
2023-02-13T18:50:18.995Z,9.70
2023-02-13T18:52:52.392Z,9.00
2023-02-13T18:55:23.137Z,9.70
2023-02-13T18:57:56.407Z,11.03
2023-02-13T19:00:27.470Z,10.50
2023-02-13T19:02:58.417Z,10.30
2023-02-13T19:05:29.156Z,10.50
2023-02-13T19:08:02.561Z,11.53
2023-02-13T19:10:33.534Z,10.50
2023-02-13T19:13:05.633Z,9.43
2023-02-13T19:15:38.636Z,10.40
2023-02-13T19:18:09.605Z,9.70
2023-02-13T19:20:41.367Z,12.13
2023-02-13T19:23:15.029Z,11.47
2023-02-13T19:25:45.805Z,12.20
2023-02-13T19:28:16.601Z,15.60
2023-02-13T19:30:47.681Z,19.00
2023-02-13T19:33:18.535Z,27.37
2023-02-13T19:35:59.883Z,25.60
2023-02-13T19:38:36.687Z,26.60
2023-02-13T19:41:08.711Z,24.50
2023-02-13T19:43:39.480Z,24.03
2023-02-13T19:46:17.473Z,21.23
2023-02-13T19:48:48.944Z,21.03
2023-02-13T19:51:22.104Z,19.40
2023-02-13T19:53:59.038Z,19.97
2023-02-13T19:56:32.137Z,16.80
2023-02-13T19:59:02.915Z,15.20
2023-02-13T20:01:34.160Z,15.30
2023-02-13T20:04:05.604Z,14.50
2023-02-13T20:06:39.062Z,15.47
2023-02-13T20:09:14.270Z,14.10
2023-02-13T20:11:46.214Z,14.60
2023-02-13T20:14:17.562Z,14.33
2023-02-13T20:16:48.562Z,14.53
2023-02-13T20:19:22.580Z,12.73
2023-02-13T20:21:54.184Z,12.77
2023-02-13T20:24:27.614Z,13.23
2023-02-13T20:26:58.932Z,11.90
2023-02-13T20:29:29.727Z,12.50
2023-02-13T20:32:00.566Z,11.60
2023-02-13T20:34:44.147Z,12.03
2023-02-13T20:37:25.630Z,12.37
2023-02-13T20:40:02.043Z,11.33
2023-02-13T20:42:35.475Z,11.70
2023-02-13T20:45:09.345Z,11.73
2023-02-13T20:47:41.821Z,13.67
2023-02-13T20:50:13.307Z,13.30
2023-02-13T20:52:44.027Z,13.40
2023-02-13T20:55:17.368Z,12.77
2023-02-13T20:57:48.544Z,13.00
2023-02-13T21:00:19.815Z,12.60
2023-02-13T21:02:52.598Z,11.93
2023-02-13T21:05:23.317Z,13.63
2023-02-13T21:07:55.630Z,13.10
2023-02-13T21:10:29.019Z,13.60
2023-02-13T21:12:59.740Z,13.40
2023-02-13T21:15:31.789Z,13.20
2023-02-13T21:18:03.618Z,14.73
2023-02-13T21:20:35.004Z,14.67
2023-02-13T21:23:11.292Z,15.70
2023-02-13T21:25:46.127Z,14.27
2023-02-13T21:28:16.938Z,14.47
2023-02-13T21:30:47.818Z,15.77
2023-02-13T21:33:18.666Z,15.73
2023-02-13T21:35:49.583Z,16.30
2023-02-13T21:38:22.394Z,15.80
2023-02-13T21:40:57.951Z,15.87
2023-02-13T21:43:29.001Z,15.90
2023-02-13T21:46:08.691Z,16.30
2023-02-13T21:48:40.121Z,16.07
2023-02-13T21:51:12.355Z,14.30
2023-02-13T21:53:43.407Z,15.37
2023-02-13T21:56:18.635Z,16.70
2023-02-13T21:58:49.941Z,16.00
2023-02-13T22:01:27.325Z,14.90
2023-02-13T22:04:02.256Z,14.70
2023-02-13T22:06:34.425Z,15.30
2023-02-13T22:09:07.697Z,14.53
2023-02-13T22:11:41.576Z,15.20
2023-02-13T22:14:17.104Z,14.80
2023-02-13T22:16:48.660Z,16.07
2023-02-13T22:19:20.337Z,14.70
2023-02-13T22:21:53.780Z,13.70
2023-02-13T22:24:24.776Z,13.80
2023-02-13T22:26:58.490Z,12.43
2023-02-13T22:29:29.262Z,12.63
2023-02-13T22:32:00.150Z,11.80
2023-02-13T22:34:31.335Z,12.10
2023-02-13T22:37:02.302Z,11.40
2023-02-13T22:39:33.105Z,10.60
2023-02-13T22:42:09.548Z,11.37
2023-02-13T22:44:40.283Z,11.47
2023-02-13T22:47:11.183Z,9.93
2023-02-13T22:49:44.525Z,10.47
2023-02-13T22:52:15.304Z,10.23
2023-02-13T22:54:46.084Z,10.03
2023-02-13T22:57:20.141Z,9.87
2023-02-13T22:59:51.151Z,9.60
2023-02-13T23:02:21.940Z,9.00
2023-02-13T23:04:52.727Z,9.10
2023-02-13T23:07:26.218Z,9.30
2023-02-13T23:09:57.439Z,9.00
2023-02-13T23:12:37.154Z,9.90
2023-02-13T23:15:09.986Z,9.43
2023-02-13T23:17:53.709Z,9.30
2023-02-13T23:20:24.880Z,10.10
2023-02-13T23:22:56.063Z,9.33
2023-02-13T23:25:26.959Z,9.90
2023-02-13T23:28:00.606Z,9.30
2023-02-13T23:30:34.222Z,9.27
2023-02-13T23:33:07.687Z,8.80
2023-02-13T23:35:40.933Z,8.63
2023-02-13T23:38:11.702Z,8.50
2023-02-13T23:40:42.440Z,8.83
2023-02-13T23:43:16.035Z,8.67
2023-02-13T23:45:46.783Z,8.57
2023-02-13T23:48:17.520Z,8.53
2023-02-13T23:50:53.623Z,9.23
2023-02-13T23:53:24.747Z,9.43
2023-02-13T23:55:55.510Z,9.00
2023-02-13T23:58:28.881Z,9.07
